Terminal Aerodrome Forecast
Issued by NWS

Home | Current Version | Previous Version | Text Only | Print | Product List | Glossary Off
Versions: 1 2 3 4 5 6 7 8 9 10 11 12 13 14 15 16 17 18 19

367
FTUS43 KGRB 152329
TAFCWA
TAF
KCWA 152329Z 1600/1624 02006KT 6SM -SN SCT015 OVC035
      TEMPO 1600/1604 1 1/2SM -SN BKN015
     FM160400 01005KT P6SM -SN OVC025
     FM161700 34007KT P6SM BKN030
     FM161800 32007KT P6SM SCT035
      AMD LTD TO CLD VIS AND WIND 1604/1612=

USA.gov is the U.S. government's official web portal to all federal, state and local government web resources and services.